Time;durP1;ratioP1;P1;durP2;ratioP2;P2;SDS_P1;SDS_P2;PMS_P1;PMS_P2;Temp;Humidity;BMP_temperature;BMP_pressure;BME280_temperature;BME280_humidity;BME280_pressure;Samples;Min_cycle;Max_cycle;Signal;HPM_P1;HPM_P2
2022/04/21 00:01:43;;;;;;;;;;;;;;;2.04;79.36;95277.75;5135465;27;1909;-48
2022/04/21 00:04:09;;;;;;;;;;;;;;;2.00;80.28;95273.63;5135733;27;976;-48
2022/04/21 00:06:36;;;;;;;;;;;;;;;2.10;80.29;95274.69;5135539;27;1020;-48
2022/04/21 00:09:02;;;;;;;;;;;;;;;2.21;80.11;95265.19;5135582;27;968;-48
2022/04/21 00:11:27;;;;;;;;;;;;;;;2.30;80.05;95272.47;5135644;27;1048;-48
2022/04/21 00:13:53;;;;;;;;;;;;;;;2.25;79.84;95274.56;5135398;27;999;-48
2022/04/21 00:16:19;;;;;;;;;;;;;;;2.09;78.85;95277.44;5135555;27;956;-48
2022/04/21 00:18:46;;;;;;;;;;;;;;;1.87;79.56;95283.34;5135601;27;1018;-48
2022/04/21 00:21:12;;;;;;;;;;;;;;;1.73;80.22;95266.69;5135524;27;1022;-48
2022/04/21 00:23:38;;;;;;;;;;;;;;;1.78;80.89;95271.63;5135427;27;2015;-48
2022/04/21 00:26:04;;;;;;;;;;;;;;;1.90;80.76;95265.53;5135425;27;1011;-48
2022/04/21 00:28:31;;;;;;;;;;;;;;;1.89;80.66;95266.47;5135373;27;952;-48
2022/04/21 00:30:58;;;;;;;;;;;;;;;1.88;80.38;95261.31;5135398;27;987;-48
2022/04/21 00:33:24;;;;;;;;;;;;;;;2.06;80.91;95259.19;5134929;27;1206;-48
2022/04/21 00:35:50;;;;;;;;;;;;;;;2.26;80.77;95257.81;5134986;27;1008;-48
2022/04/21 00:38:16;;;;;;;;;;;;;;;2.18;79.83;95252.22;5135076;27;1031;-48
2022/04/21 00:40:42;;;;;;;;;;;;;;;2.06;80.00;95246.00;5134818;27;1062;-48
2022/04/21 00:43:08;;;;;;;;;;;;;;;2.07;80.19;95256.44;5134490;27;2052;-48
2022/04/21 00:45:34;;;;;;;;;;;;;;;2.01;79.59;95251.59;5134819;27;1035;-47
2022/04/21 00:48:02;;;;;;;;;;;;;;;1.86;80.32;95244.72;5135106;27;1031;-48
2022/04/21 00:50:29;;;;;;;;;;;;;;;1.85;80.90;95243.06;5135050;27;1031;-48
2022/04/21 00:52:56;;;;;;;;;;;;;;;1.94;80.78;95240.63;5134673;27;1028;-48
2022/04/21 00:55:22;;;;;;;;;;;;;;;2.07;80.37;95235.34;5134584;27;1051;-48
2022/04/21 00:57:50;;;;;;;;;;;;;;;1.90;79.25;95233.06;5134635;27;1028;-48
2022/04/21 01:00:17;;;;;;;;;;;;;;;1.68;79.48;95239.78;5134566;27;1036;-48
2022/04/21 01:02:46;;;;;;;;;;;;;;;1.57;80.41;95242.31;5134503;27;1909;-48
2022/04/21 01:05:17;;;;;;;;;;;;;;;1.50;80.37;95247.16;5134691;27;1079;-48
2022/04/21 01:07:43;;;;;;;;;;;;;;;1.46;80.84;95242.19;5134845;27;1015;-48
2022/04/21 01:10:10;;;;;;;;;;;;;;;1.64;81.08;95248.00;5134752;27;1016;-48
2022/04/21 01:12:37;;;;;;;;;;;;;;;1.74;79.93;95242.00;5134608;27;984;-48
2022/04/21 01:15:03;;;;;;;;;;;;;;;1.78;79.40;95233.88;5134461;27;1012;-48
2022/04/21 01:17:33;;;;;;;;;;;;;;;1.54;79.24;95232.81;5134709;28;1086;-48
2022/04/21 01:20:01;;;;;;;;;;;;;;;1.63;80.74;95239.28;5134702;28;1027;-48
2022/04/21 01:22:27;;;;;;;;;;;;;;;1.76;80.91;95233.97;5134624;28;2002;-48
2022/04/21 01:24:53;;;;;;;;;;;;;;;1.66;80.04;95230.31;5134571;28;1047;-48
2022/04/21 01:27:20;;;;;;;;;;;;;;;1.61;79.65;95230.59;5134260;28;986;-47
2022/04/21 01:29:47;;;;;;;;;;;;;;;1.75;80.50;95240.22;5134264;28;1075;-48
2022/04/21 01:32:13;;;;;;;;;;;;;;;1.85;81.61;95240.44;5134406;28;1312;-48
2022/04/21 01:34:39;;;;;;;;;;;;;;;1.92;81.49;95234.63;5134277;28;1017;-48
2022/04/21 01:42:34;;;;;;;;;;;;;;;1.75;80.48;95227.03;5134448;28;1911;-48
2022/04/21 01:45:00;;;;;;;;;;;;;;;1.81;81.13;95229.25;5134157;28;1048;-48
2022/04/21 01:47:26;;;;;;;;;;;;;;;1.90;81.58;95225.13;5134145;28;1835;-48
2022/04/21 01:49:52;;;;;;;;;;;;;;;1.99;81.56;95211.28;5134479;28;1023;-48
2022/04/21 01:52:18;;;;;;;;;;;;;;;2.08;82.10;95215.09;5134023;28;1072;-48
2022/04/21 01:54:44;;;;;;;;;;;;;;;2.21;81.63;95213.25;5135059;27;984;-48
2022/04/21 01:57:10;;;;;;;;;;;;;;;2.24;81.75;95212.19;5138031;27;1091;-48
2022/04/21 01:59:36;;;;;;;;;;;;;;;2.21;80.08;95208.00;5138286;27;965;-48
2022/04/21 02:02:02;;;;;;;;;;;;;;;2.15;79.88;95213.72;5138026;27;2000;-48
2022/04/21 02:04:28;;;;;;;;;;;;;;;2.18;80.17;95223.19;5138238;27;984;-48
2022/04/21 02:06:54;;;;;;;;;;;;;;;2.12;80.74;95225.28;5137810;27;1861;-48
2022/04/21 02:09:20;;;;;;;;;;;;;;;2.13;80.68;95224.34;5137965;27;1043;-48
2022/04/21 02:11:46;;;;;;;;;;;;;;;2.08;80.54;95223.84;5138164;27;1011;-48
2022/04/21 02:14:13;;;;;;;;;;;;;;;2.14;79.93;95222.56;5138024;27;1010;-48
2022/04/21 02:16:39;;;;;;;;;;;;;;;2.08;79.89;95212.44;5137677;27;1877;-48
2022/04/21 02:19:05;;;;;;;;;;;;;;;1.93;79.92;95202.00;5137631;27;1057;-48
2022/04/21 02:21:31;;;;;;;;;;;;;;;1.84;80.23;95201.81;5136281;27;1991;-48
2022/04/21 02:23:57;;;;;;;;;;;;;;;1.85;81.25;95196.44;5137609;27;984;-48
2022/04/21 02:26:23;;;;;;;;;;;;;;;1.96;81.24;95195.69;5137439;27;1020;-48
2022/04/21 02:28:49;;;;;;;;;;;;;;;1.99;81.01;95197.25;5137425;27;1095;-48
2022/04/21 02:31:15;;;;;;;;;;;;;;;1.88;80.68;95203.31;5137337;27;1075;-47
2022/04/21 02:33:41;;;;;;;;;;;;;;;1.74;80.38;95212.16;5137202;27;1237;-48
2022/04/21 02:36:07;;;;;;;;;;;;;;;1.71;80.37;95215.03;5137485;27;1030;-48
2022/04/21 02:38:33;;;;;;;;;;;;;;;1.66;81.27;95219.75;5137384;27;1020;-48
2022/04/21 02:40:59;;;;;;;;;;;;;;;1.73;81.50;95226.31;5137134;27;1941;-48
2022/04/21 02:43:25;;;;;;;;;;;;;;;1.80;81.92;95217.00;5137191;27;1910;-48
2022/04/21 02:45:51;;;;;;;;;;;;;;;1.84;82.27;95223.78;5137420;27;1023;-48
2022/04/21 02:48:17;;;;;;;;;;;;;;;1.91;81.81;95214.47;5137437;27;960;-48
2022/04/21 02:50:43;;;;;;;;;;;;;;;1.79;82.44;95220.59;5136946;27;1095;-48
2022/04/21 02:53:10;;;;;;;;;;;;;;;1.79;82.85;95223.22;5136844;27;1020;-48
2022/04/21 02:58:22;;;;;;;;;;;;;;;1.74;82.88;95223.53;5136825;27;1028;-48
2022/04/21 03:00:48;;;;;;;;;;;;;;;1.70;83.48;95224.69;5136744;27;1015;-48
2022/04/21 03:03:15;;;;;;;;;;;;;;;1.59;83.36;95224.59;5137137;27;1988;-48
2022/04/21 03:05:42;;;;;;;;;;;;;;;1.56;84.20;95219.56;5136781;27;1028;-48
2022/04/21 03:08:08;;;;;;;;;;;;;;;1.58;83.82;95224.72;5136547;27;1094;-48
2022/04/21 03:10:34;;;;;;;;;;;;;;;1.52;83.54;95223.34;5136608;27;1020;-48
2022/04/21 03:13:00;;;;;;;;;;;;;;;1.64;83.92;95224.28;5136538;27;1064;-48
2022/04/21 03:15:26;;;;;;;;;;;;;;;1.47;83.63;95226.28;5136601;27;1039;-48
2022/04/21 03:17:52;;;;;;;;;;;;;;;1.49;84.38;95226.19;5136705;27;1015;-48
2022/04/21 03:25:47;;;;;;;;;;;;;;;1.51;84.81;95219.00;5136616;27;1027;-48
2022/04/21 03:28:13;;;;;;;;;;;;;;;1.59;84.82;95213.22;5136556;27;953;-48
2022/04/21 03:30:39;;;;;;;;;;;;;;;1.54;84.50;95209.09;5136105;27;1123;-48
2022/04/21 03:33:05;;;;;;;;;;;;;;;1.54;84.35;95213.53;5136011;27;1099;-48
2022/04/21 03:35:31;;;;;;;;;;;;;;;1.63;83.95;95207.66;5136415;27;1036;-48
2022/04/21 03:37:57;;;;;;;;;;;;;;;1.61;83.87;95212.16;5136231;27;1048;-48
2022/04/21 03:40:23;;;;;;;;;;;;;;;1.62;84.78;95219.13;5136109;27;1035;-48
2022/04/21 03:42:49;;;;;;;;;;;;;;;1.76;84.48;95218.16;5135967;27;1897;-48
2022/04/21 03:45:15;;;;;;;;;;;;;;;1.84;83.94;95221.13;5136143;27;1011;-48
2022/04/21 03:47:41;;;;;;;;;;;;;;;1.90;83.69;95219.88;5136113;27;984;-48
2022/04/21 03:50:07;;;;;;;;;;;;;;;1.89;82.87;95218.16;5136108;27;1030;-48
2022/04/21 03:52:33;;;;;;;;;;;;;;;1.93;82.92;95214.34;5136006;27;952;-48
2022/04/21 03:54:59;;;;;;;;;;;;;;;1.97;83.02;95202.63;5135882;27;960;-48
2022/04/21 03:57:27;;;;;;;;;;;;;;;1.97;82.91;95202.63;5135675;27;1027;-48
2022/04/21 03:59:53;;;;;;;;;;;;;;;2.03;82.68;95210.16;5135456;27;1067;-48
2022/04/21 04:02:19;;;;;;;;;;;;;;;2.07;83.24;95205.50;5135720;27;1978;-48
2022/04/21 04:04:45;;;;;;;;;;;;;;;1.91;82.99;95203.91;5135554;27;1036;-48
2022/04/21 04:12:40;;;;;;;;;;;;;;;1.62;84.26;95215.66;5135702;27;972;-48
2022/04/21 04:15:07;;;;;;;;;;;;;;;1.72;83.49;95217.53;5135604;27;1056;-48
2022/04/21 04:17:33;;;;;;;;;;;;;;;1.64;83.61;95217.22;5135136;27;1015;-48
2022/04/21 04:19:59;;;;;;;;;;;;;;;1.64;84.10;95211.94;5135239;27;1019;-48
2022/04/21 04:22:25;;;;;;;;;;;;;;;1.71;84.31;95215.84;5135069;27;1906;-48
2022/04/21 04:24:54;;;;;;;;;;;;;;;1.70;84.22;95223.88;5135111;27;979;-48
2022/04/21 04:27:24;;;;;;;;;;;;;;;1.63;84.24;95234.00;5135404;27;968;-48
2022/04/21 04:29:50;;;;;;;;;;;;;;;1.75;85.05;95234.94;5135068;27;1020;-48
2022/04/21 04:32:16;;;;;;;;;;;;;;;1.71;84.46;95236.09;5135066;27;1398;-48
2022/04/21 04:34:43;;;;;;;;;;;;;;;1.80;85.28;95239.88;5135038;27;948;-48
2022/04/21 04:37:09;;;;;;;;;;;;;;;1.90;84.43;95228.59;5134888;27;1016;-48
2022/04/21 04:39:35;;;;;;;;;;;;;;;1.84;83.87;95230.81;5134932;27;968;-48
2022/04/21 04:42:16;;;;;;;;;;;;;;;1.74;84.72;95231.44;5134799;27;2009;-48
2022/04/21 04:44:42;;;;;;;;;;;;;;;1.73;84.55;95228.94;5135078;27;1050;-48
2022/04/21 04:47:08;;;;;;;;;;;;;;;1.71;84.41;95230.84;5135139;27;976;-48
2022/04/21 04:49:34;;;;;;;;;;;;;;;1.69;85.30;95241.47;5135121;27;975;-48
2022/04/21 04:52:00;;;;;;;;;;;;;;;1.75;84.63;95233.16;5134570;27;1059;-48
2022/04/21 04:54:28;;;;;;;;;;;;;;;1.89;84.16;95231.34;5135027;27;1038;-48
2022/04/21 04:56:55;;;;;;;;;;;;;;;2.01;83.90;95227.88;5134672;27;1035;-48
2022/04/21 04:59:21;;;;;;;;;;;;;;;2.15;83.97;95232.16;5134916;27;1070;-48
2022/04/21 05:01:48;;;;;;;;;;;;;;;2.22;82.98;95230.78;5134901;27;1987;-48
2022/04/21 05:04:15;;;;;;;;;;;;;;;2.25;83.13;95221.81;5134891;27;951;-48
2022/04/21 05:06:42;;;;;;;;;;;;;;;2.37;82.83;95220.91;5134363;27;1083;-47
2022/04/21 05:09:13;;;;;;;;;;;;;;;2.44;82.27;95223.97;5134739;27;1027;-47
2022/04/21 05:11:40;;;;;;;;;;;;;;;2.50;82.32;95234.09;5134608;27;991;-48
2022/04/21 05:14:09;;;;;;;;;;;;;;;2.52;81.96;95225.13;5134458;27;1028;-48
2022/04/21 05:16:39;;;;;;;;;;;;;;;2.56;81.57;95220.44;5134688;27;1131;-49
2022/04/21 05:19:19;;;;;;;;;;;;;;;2.50;82.01;95229.69;5134385;28;1102;-48
2022/04/21 05:21:46;;;;;;;;;;;;;;;2.45;81.79;95221.25;5134193;28;1905;-48
2022/04/21 05:24:12;;;;;;;;;;;;;;;2.45;82.15;95204.56;5134305;28;1095;-48
2022/04/21 05:26:40;;;;;;;;;;;;;;;2.52;82.46;95208.44;5134575;28;1051;-48
2022/04/21 05:30:55;;;;;;;;;;;;;;;2.63;82.48;95210.31;5134425;27;1027;-48
2022/04/21 05:31:59;;;;;;;;;;;;;;;2.87;81.61;95197.09;5138625;27;1393;-48
2022/04/21 05:34:26;;;;;;;;;;;;;;;2.90;81.06;95204.78;5138579;27;1036;-48
2022/04/21 05:36:54;;;;;;;;;;;;;;;2.86;81.34;95212.09;5138589;27;947;-48
2022/04/21 05:39:20;;;;;;;;;;;;;;;2.92;83.06;95219.59;5138513;27;972;-48
2022/04/21 05:41:47;;;;;;;;;;;;;;;3.04;82.00;95212.53;5138322;27;1909;-48
2022/04/21 05:44:13;;;;;;;;;;;;;;;3.22;81.83;95205.03;5138218;27;1015;-48
2022/04/21 05:46:40;;;;;;;;;;;;;;;3.33;81.34;95204.25;5138248;27;1021;-48
2022/04/21 05:49:06;;;;;;;;;;;;;;;3.36;81.41;95205.78;5138147;27;1068;-48
2022/04/21 05:51:32;;;;;;;;;;;;;;;3.37;81.32;95197.75;5138241;27;945;-48
2022/04/21 05:53:58;;;;;;;;;;;;;;;3.38;81.36;95207.38;5138223;27;945;-47
2022/04/21 05:56:25;;;;;;;;;;;;;;;3.46;79.91;95209.44;5138346;27;967;-48
2022/04/21 05:58:51;;;;;;;;;;;;;;;3.49;80.72;95219.75;5138231;27;964;-47
2022/04/21 06:01:17;;;;;;;;;;;;;;;3.57;79.95;95209.47;5137877;27;1020;-48
2022/04/21 06:03:44;;;;;;;;;;;;;;;3.71;80.26;95216.34;5137831;27;1909;-47
2022/04/21 06:06:11;;;;;;;;;;;;;;;3.75;79.15;95220.44;5138059;27;1043;-47
2022/04/21 06:08:37;;;;;;;;;;;;;;;3.76;79.57;95210.72;5137862;27;1035;-47
2022/04/21 06:11:03;;;;;;;;;;;;;;;3.88;79.46;95215.03;5138136;27;968;-48
2022/04/21 06:13:30;;;;;;;;;;;;;;;4.06;78.35;95210.97;5137641;27;1103;-48
2022/04/21 06:15:56;;;;;;;;;;;;;;;4.05;78.32;95214.56;5137958;27;1059;-48
2022/04/21 06:18:23;;;;;;;;;;;;;;;4.09;78.00;95213.38;5137987;27;976;-48
2022/04/21 06:20:50;;;;;;;;;;;;;;;4.31;78.39;95227.56;5137767;27;1131;-48
2022/04/21 06:23:16;;;;;;;;;;;;;;;4.38;77.28;95212.91;5137748;27;1901;-48
2022/04/21 06:25:43;;;;;;;;;;;;;;;4.40;75.60;95226.84;5137995;27;976;-48
2022/04/21 06:28:13;;;;;;;;;;;;;;;4.54;76.74;95225.75;5137690;27;1028;-48
2022/04/21 06:30:39;;;;;;;;;;;;;;;4.70;75.72;95212.09;5137705;27;1012;-48
2022/04/21 06:33:05;;;;;;;;;;;;;;;4.79;76.30;95219.31;5137369;27;1233;-48
2022/04/21 06:35:31;;;;;;;;;;;;;;;5.05;76.15;95227.78;5137451;27;1020;-48
2022/04/21 06:37:57;;;;;;;;;;;;;;;5.12;74.83;95225.47;5137281;27;1047;-48
2022/04/21 06:40:23;;;;;;;;;;;;;;;4.95;75.27;95220.72;5136617;27;1110;-48
2022/04/21 06:42:50;;;;;;;;;;;;;;;4.98;75.37;95231.91;5137403;27;1918;-48
2022/04/21 06:48:03;;;;;;;;;;;;;;;4.96;75.27;95223.25;5137053;27;1035;-48
2022/04/21 06:50:33;;;;;;;;;;;;;;;4.76;76.59;95226.66;5136933;27;1071;-48
2022/04/21 06:53:02;;;;;;;;;;;;;;;4.98;76.50;95228.44;5137006;27;1102;-48
2022/04/21 06:55:28;;;;;;;;;;;;;;;4.96;77.53;95228.53;5136009;27;1043;-48
2022/04/21 06:57:55;;;;;;;;;;;;;;;4.97;77.45;95227.59;5137244;27;980;-48
2022/04/21 07:00:22;;;;;;;;;;;;;;;5.00;78.32;95229.13;5137139;27;952;-48
2022/04/21 07:02:52;;;;;;;;;;;;;;;5.20;77.59;95228.34;5136706;27;1909;-48
2022/04/21 07:05:18;;;;;;;;;;;;;;;5.41;76.66;95232.84;5136625;27;1043;-48
2022/04/21 07:07:44;;;;;;;;;;;;;;;5.63;76.11;95226.56;5136942;27;949;-48
2022/04/21 07:10:10;;;;;;;;;;;;;;;5.85;75.04;95230.91;5136867;27;951;-48
2022/04/21 07:12:37;;;;;;;;;;;;;;;5.73;75.67;95226.63;5136864;27;977;-48
2022/04/21 07:15:04;;;;;;;;;;;;;;;5.77;76.48;95239.53;5136744;27;1159;-48
2022/04/21 07:17:31;;;;;;;;;;;;;;;5.67;76.66;95228.00;5136524;27;1088;-48
2022/04/21 07:19:58;;;;;;;;;;;;;;;5.52;77.74;95235.44;5136628;27;1026;-48
2022/04/21 07:22:25;;;;;;;;;;;;;;;5.54;77.63;95246.78;5136266;27;2019;-48
2022/04/21 07:24:51;;;;;;;;;;;;;;;5.48;77.58;95239.31;5136604;27;1131;-48
2022/04/21 07:27:17;;;;;;;;;;;;;;;5.56;78.41;95247.47;5136325;27;1079;-48
2022/04/21 07:29:43;;;;;;;;;;;;;;;5.61;77.97;95244.44;5136312;27;1047;-48
2022/04/21 07:32:10;;;;;;;;;;;;;;;5.76;78.14;95248.44;5136028;27;1241;-48
2022/04/21 07:34:37;;;;;;;;;;;;;;;5.82;77.65;95239.13;5136296;27;1059;-48
2022/04/21 07:37:03;;;;;;;;;;;;;;;5.69;78.25;95244.63;5136051;27;1192;-49
2022/04/21 07:39:30;;;;;;;;;;;;;;;5.60;78.64;95250.72;5136390;27;945;-48
2022/04/21 07:41:59;;;;;;;;;;;;;;;5.64;79.41;95250.31;5135933;27;1984;-48
2022/04/21 07:44:26;;;;;;;;;;;;;;;5.65;77.26;95246.72;5136132;27;1024;-48
2022/04/21 07:46:53;;;;;;;;;;;;;;;5.66;78.61;95251.03;5136051;27;1007;-49
2022/04/21 07:54:51;;;;;;;;;;;;;;;6.00;77.74;95245.56;5136053;27;1003;-51
2022/04/21 07:57:18;;;;;;;;;;;;;;;5.94;76.52;95246.06;5135728;27;1335;-49
2022/04/21 07:59:44;;;;;;;;;;;;;;;6.00;76.93;95244.72;5136079;27;971;-49
2022/04/21 08:02:11;;;;;;;;;;;;;;;6.09;76.32;95238.66;5135579;27;1910;-49
2022/04/21 08:04:40;;;;;;;;;;;;;;;6.10;76.22;95245.63;5135856;27;1019;-49
2022/04/21 08:07:06;;;;;;;;;;;;;;;6.36;76.09;95239.88;5135786;27;971;-49
2022/04/21 08:09:32;;;;;;;;;;;;;;;6.33;76.19;95240.97;5135858;27;1023;-50
2022/04/21 08:11:58;;;;;;;;;;;;;;;6.56;76.55;95238.13;5135738;27;972;-50
2022/04/21 08:14:24;;;;;;;;;;;;;;;6.74;75.55;95236.53;5135436;27;1103;-49
2022/04/21 08:16:53;;;;;;;;;;;;;;;6.96;73.59;95239.94;5135643;27;997;-50
2022/04/21 08:19:19;;;;;;;;;;;;;;;7.17;72.29;95226.53;5135663;27;949;-50
2022/04/21 08:21:47;;;;;;;;;;;;;;;7.31;71.96;95230.63;5135403;27;1913;-50
2022/04/21 08:35:25;;;;;;;;;;;;;;;7.54;68.69;95231.16;5121526;27;1325;-50
2022/04/21 08:37:51;;;;;;;;;;;;;;;7.84;66.17;95232.00;5134991;27;972;-50
2022/04/21 08:40:18;;;;;;;;;;;;;;;8.00;63.70;95238.38;5135279;27;968;-50
2022/04/21 08:42:44;;;;;;;;;;;;;;;8.18;65.42;95227.03;5135044;27;1918;-50
2022/04/21 08:45:10;;;;;;;;;;;;;;;8.63;66.26;95226.31;5135078;27;1046;-50
2022/04/21 08:47:39;;;;;;;;;;;;;;;9.06;63.87;95221.31;5135175;27;973;-50
2022/04/21 08:50:06;;;;;;;;;;;;;;;9.03;62.84;95221.59;5134730;27;1059;-59
2022/04/21 08:52:33;;;;;;;;;;;;;;;9.16;64.42;95214.94;5134674;27;1020;-50
2022/04/21 08:55:01;;;;;;;;;;;;;;;9.53;64.31;95219.28;5134967;27;960;-51
2022/04/21 08:57:28;;;;;;;;;;;;;;;9.76;63.78;95227.66;5134983;27;969;-51
2022/04/21 08:59:55;;;;;;;;;;;;;;;9.62;62.09;95222.88;5134978;27;953;-50
2022/04/21 09:02:21;;;;;;;;;;;;;;;9.68;64.50;95219.59;5134718;27;1906;-51
2022/04/21 09:04:47;;;;;;;;;;;;;;;9.93;63.02;95207.25;5134598;27;980;-51
2022/04/21 09:07:18;;;;;;;;;;;;;;;10.16;62.75;95207.59;5134522;27;956;-51
2022/04/21 09:10:02;;;;;;;;;;;;;;;10.41;63.86;95206.94;5134546;27;1099;-50
2022/04/21 09:12:28;;;;;;;;;;;;;;;10.44;64.84;95217.31;5134651;27;991;-50
2022/04/21 09:14:54;;;;;;;;;;;;;;;10.41;65.85;95205.09;5134503;27;1031;-50
2022/04/21 09:17:20;;;;;;;;;;;;;;;10.33;65.76;95215.75;5134530;27;977;-54
2022/04/21 09:19:56;;;;;;;;;;;;;;;9.93;66.42;95217.94;5134542;28;1038;-50
2022/04/21 09:22:22;;;;;;;;;;;;;;;9.68;64.63;95208.91;5134599;28;1906;-50
2022/04/21 09:24:51;;;;;;;;;;;;;;;9.57;64.93;95201.97;5134549;28;960;-50
2022/04/21 09:27:16;;;;;;;;;;;;;;;9.82;66.87;95198.66;5134343;28;1292;-49
2022/04/21 09:29:43;;;;;;;;;;;;;;;9.71;63.44;95207.75;5134675;28;1043;-50
2022/04/21 09:32:09;;;;;;;;;;;;;;;9.91;65.56;95214.59;5134421;27;1083;-50
2022/04/21 09:34:35;;;;;;;;;;;;;;;10.17;64.98;95197.75;5134253;28;1012;-50
2022/04/21 09:37:03;;;;;;;;;;;;;;;10.56;62.86;95205.34;5134512;28;1066;-50
2022/04/21 09:39:29;;;;;;;;;;;;;;;10.93;62.86;95209.53;5134583;27;1022;-49
2022/04/21 09:41:56;;;;;;;;;;;;;;;11.14;61.54;95209.09;5134466;27;1922;-50
2022/04/21 09:47:20;;;;;;;;;;;;;;;11.46;61.12;95210.16;5134203;28;1075;-51
2022/04/21 09:49:46;;;;;;;;;;;;;;;11.63;61.11;95206.50;5134211;28;1008;-50
2022/04/21 09:52:13;;;;;;;;;;;;;;;12.04;60.50;95208.34;5134228;28;1046;-50
2022/04/21 09:54:40;;;;;;;;;;;;;;;12.20;59.58;95203.00;5134197;27;1023;-50
2022/04/21 09:57:07;;;;;;;;;;;;;;;12.07;58.66;95200.00;5134133;28;972;-50
2022/04/21 09:59:36;;;;;;;;;;;;;;;12.16;58.56;95196.31;5134030;28;972;-50
2022/04/21 10:02:03;;;;;;;;;;;;;;;12.39;60.71;95199.09;5134139;28;1991;-50
2022/04/21 10:04:29;;;;;;;;;;;;;;;12.36;61.00;95201.28;5133842;28;1209;-50
2022/04/21 10:06:56;;;;;;;;;;;;;;;12.03;60.27;95201.34;5134080;28;1043;-50
2022/04/21 10:09:22;;;;;;;;;;;;;;;11.57;60.96;95195.59;5134084;28;1849;-49
2022/04/21 10:11:50;;;;;;;;;;;;;;;11.23;62.26;95192.06;5133898;28;1095;-49
2022/04/21 10:14:17;;;;;;;;;;;;;;;10.91;62.22;95180.25;5134226;28;1031;-50
2022/04/21 10:16:43;;;;;;;;;;;;;;;10.90;62.97;95183.91;5136218;27;1031;-50
2022/04/21 10:19:11;;;;;;;;;;;;;;;11.10;63.01;95178.31;5137565;27;1103;-50
2022/04/21 10:21:36;;;;;;;;;;;;;;;11.17;63.10;95167.75;5137621;27;1955;-49
2022/04/21 10:24:03;;;;;;;;;;;;;;;11.27;61.38;95169.31;5137507;27;1986;-49
2022/04/21 10:26:40;;;;;;;;;;;;;;;11.13;61.68;95165.44;5137488;27;1059;-49
2022/04/21 10:29:13;;;;;;;;;;;;;;;11.24;62.14;95171.47;5137830;27;1038;-48
2022/04/21 10:31:46;;;;;;;;;;;;;;;11.24;61.01;95171.47;5137427;27;1095;-48
2022/04/21 10:34:36;;;;;;;;;;;;;;;11.28;60.76;95170.13;5137188;27;1087;-50
2022/04/21 10:37:21;;;;;;;;;;;;;;;11.63;62.06;95166.31;5137294;27;1070;-50
2022/04/21 10:40:06;;;;;;;;;;;;;;;12.07;60.84;95170.50;5137567;27;959;-50
2022/04/21 10:42:50;;;;;;;;;;;;;;;12.33;59.15;95172.97;5137394;27;1996;-50
2022/04/21 10:45:21;;;;;;;;;;;;;;;12.26;59.27;95170.13;5137405;27;1019;-49
2022/04/21 10:48:02;;;;;;;;;;;;;;;12.23;59.40;95166.97;5137320;27;1051;-49
2022/04/21 10:50:31;;;;;;;;;;;;;;;12.23;58.97;95159.75;5137245;27;972;-50
2022/04/21 10:58:32;;;;;;;;;;;;;;;12.53;59.64;95157.31;5136973;27;1005;-50
2022/04/21 11:01:10;;;;;;;;;;;;;;;12.61;56.48;95149.22;5137038;27;1046;-50
2022/04/21 11:03:36;;;;;;;;;;;;;;;12.65;57.22;95149.72;5136893;27;1913;-49
2022/04/21 11:06:07;;;;;;;;;;;;;;;12.78;58.71;95141.13;5135607;27;1043;-50
2022/04/21 11:08:33;;;;;;;;;;;;;;;12.61;56.26;95141.19;5136716;27;945;-50
2022/04/21 11:10:59;;;;;;;;;;;;;;;12.57;57.36;95129.13;5136914;27;1034;-50
2022/04/21 11:13:43;;;;;;;;;;;;;;;12.81;55.99;95135.44;5136807;27;991;-50
2022/04/21 11:16:10;;;;;;;;;;;;;;;13.08;55.91;95136.78;5136884;27;1028;-50
2022/04/21 11:18:36;;;;;;;;;;;;;;;13.32;56.43;95134.97;5136516;27;968;-50
2022/04/21 11:21:21;;;;;;;;;;;;;;;13.55;56.05;95137.69;5136728;27;977;-50
2022/04/21 11:23:47;;;;;;;;;;;;;;;13.61;55.10;95136.94;5136338;27;1917;-50
2022/04/21 11:26:13;;;;;;;;;;;;;;;13.46;55.54;95137.72;5136499;27;1108;-50
2022/04/21 11:28:43;;;;;;;;;;;;;;;13.35;57.00;95129.25;5136370;27;1016;-50
2022/04/21 11:31:09;;;;;;;;;;;;;;;13.25;56.17;95124.09;5136323;27;1035;-50
2022/04/21 11:33:38;;;;;;;;;;;;;;;13.40;57.70;95127.69;5134689;27;1127;-50
2022/04/21 11:36:05;;;;;;;;;;;;;;;13.40;56.45;95113.44;5136346;27;965;-50
2022/04/21 11:38:39;;;;;;;;;;;;;;;13.12;56.08;95113.09;5136419;27;976;-50
2022/04/21 11:41:05;;;;;;;;;;;;;;;13.19;58.25;95111.38;5136347;27;1024;-49
2022/04/21 11:43:32;;;;;;;;;;;;;;;13.15;56.50;95123.50;5136225;27;1909;-49
2022/04/21 11:45:59;;;;;;;;;;;;;;;13.14;58.24;95113.75;5135927;27;1020;-50
2022/04/21 11:48:33;;;;;;;;;;;;;;;13.31;58.76;95107.28;5136056;27;1194;-50
2022/04/21 11:50:59;;;;;;;;;;;;;;;13.43;56.96;95113.06;5136051;27;984;-50
2022/04/21 11:53:29;;;;;;;;;;;;;;;13.51;55.71;95104.09;5135924;27;1000;-50
2022/04/21 11:55:55;;;;;;;;;;;;;;;13.54;57.63;95109.13;5135858;27;1064;-50
2022/04/21 11:58:28;;;;;;;;;;;;;;;13.57;56.67;95108.78;5135721;27;1024;-50
2022/04/21 12:06:40;;;;;;;;;;;;;;;13.48;56.76;95103.47;5135742;27;1004;-50
2022/04/21 12:09:07;;;;;;;;;;;;;;;13.47;57.20;95091.06;5135495;27;1031;-50
2022/04/21 12:11:33;;;;;;;;;;;;;;;13.46;56.21;95089.38;5135717;27;1179;-50
2022/04/21 12:13:59;;;;;;;;;;;;;;;13.42;58.26;95089.94;5135709;27;988;-50
2022/04/21 12:16:39;;;;;;;;;;;;;;;13.44;58.34;95086.03;5134099;27;1122;-50
2022/04/21 12:19:29;;;;;;;;;;;;;;;13.42;58.93;95079.19;5135504;27;1015;-50
2022/04/21 12:22:07;;;;;;;;;;;;;;;13.31;59.59;95080.44;5129636;27;1910;-50
2022/04/21 12:24:36;;;;;;;;;;;;;;;13.31;58.88;95082.28;5135256;27;1024;-50
2022/04/21 12:27:04;;;;;;;;;;;;;;;13.16;59.21;95077.66;5135309;27;1019;-48
2022/04/21 12:29:31;;;;;;;;;;;;;;;13.23;60.09;95075.94;5134232;27;1813;-49
2022/04/21 12:35:39;;;;;;;;;;;;;;;13.44;59.18;95071.78;4164770;27;2066;-49
2022/04/21 12:40:52;;;;;;;;;;;;;;;13.57;57.99;95069.31;5135017;27;1123;-49
2022/04/21 12:43:18;;;;;;;;;;;;;;;13.47;57.37;95061.50;5135154;27;1917;-49
2022/04/21 12:45:45;;;;;;;;;;;;;;;13.46;56.99;95059.84;5135064;27;960;-49
2022/04/21 12:48:25;;;;;;;;;;;;;;;13.52;57.81;95068.19;5135042;27;968;-49
2022/04/21 12:50:52;;;;;;;;;;;;;;;13.55;60.22;95065.16;5134755;27;1027;-49
2022/04/21 12:53:28;;;;;;;;;;;;;;;13.47;58.23;95058.84;5135037;27;1081;-49
2022/04/21 12:55:54;;;;;;;;;;;;;;;13.42;59.78;95069.28;5135266;27;952;-49
2022/04/21 12:58:29;;;;;;;;;;;;;;;13.30;59.73;95062.69;5134843;27;1028;-49
2022/04/21 13:00:55;;;;;;;;;;;;;;;13.35;59.81;95062.13;5134775;27;1059;-49
2022/04/21 13:03:21;;;;;;;;;;;;;;;13.36;60.40;95059.25;5134365;27;1980;-49
2022/04/21 13:05:49;;;;;;;;;;;;;;;13.36;58.45;95061.94;5135107;27;933;-49
2022/04/21 13:08:15;;;;;;;;;;;;;;;13.32;59.76;95057.09;5134547;27;1083;-49
2022/04/21 13:10:41;;;;;;;;;;;;;;;13.33;59.37;95059.59;5134576;27;1020;-49
2022/04/21 13:13:07;;;;;;;;;;;;;;;13.30;59.15;95062.69;5134790;27;1044;-49
2022/04/21 13:15:33;;;;;;;;;;;;;;;13.26;60.20;95066.69;5134494;27;1200;-49
2022/04/21 13:17:59;;;;;;;;;;;;;;;13.22;61.18;95070.75;5134277;27;1068;-49
2022/04/21 13:23:10;;;;;;;;;;;;;;;13.26;62.07;95074.72;5134669;28;1909;-49
2022/04/21 13:25:36;;;;;;;;;;;;;;;13.28;61.84;95075.41;5134423;28;1853;-49
2022/04/21 13:28:02;;;;;;;;;;;;;;;13.29;61.90;95077.91;5134400;28;1973;-49
2022/04/21 13:30:28;;;;;;;;;;;;;;;13.30;60.71;95070.72;5134261;28;1020;-49
2022/04/21 13:35:40;;;;;;;;;;;;;;;13.30;60.62;95081.47;5134439;27;1253;-49
2022/04/21 13:38:06;;;;;;;;;;;;;;;13.27;61.67;95087.16;5134366;28;1011;-49
2022/04/21 13:40:33;;;;;;;;;;;;;;;13.32;63.46;95084.81;5134553;28;1031;-49
2022/04/21 13:42:59;;;;;;;;;;;;;;;13.40;62.02;95079.38;5134167;28;1913;-49
2022/04/21 13:45:25;;;;;;;;;;;;;;;13.46;61.44;95080.50;5134130;28;1051;-49
2022/04/21 13:47:52;;;;;;;;;;;;;;;13.51;61.29;95080.78;5134355;27;953;-49
2022/04/21 13:50:18;;;;;;;;;;;;;;;13.54;61.66;95069.66;5134244;27;1267;-49
2022/04/21 13:52:44;;;;;;;;;;;;;;;13.57;61.47;95080.06;5138201;27;1040;-49
2022/04/21 13:55:10;;;;;;;;;;;;;;;13.58;61.67;95089.81;5138140;27;1138;-49
2022/04/21 13:57:37;;;;;;;;;;;;;;;13.60;61.60;95092.28;5138042;27;1208;-49
2022/04/21 14:00:05;;;;;;;;;;;;;;;13.54;60.82;95096.53;5138334;27;995;-49
2022/04/21 14:02:31;;;;;;;;;;;;;;;13.50;61.79;95089.03;5137014;27;1986;-52
2022/04/21 14:04:57;;;;;;;;;;;;;;;13.52;61.67;95095.06;5138146;27;952;-50
2022/04/21 14:07:23;;;;;;;;;;;;;;;13.56;63.41;95094.50;5138497;27;1079;-50
2022/04/21 14:09:49;;;;;;;;;;;;;;;13.56;62.02;95086.44;5138227;27;1031;-50
2022/04/21 14:12:18;;;;;;;;;;;;;;;13.59;62.77;95091.47;5137861;27;1027;-49
2022/04/21 14:14:44;;;;;;;;;;;;;;;13.61;63.95;95089.44;5138110;27;972;-49